sensor_id;sensor_type;location;lat;lon;timestamp;pressure;altitude;pressure_sealevel;temperature;humidity
56668;BME280;42542;48.360;10.958;2023-06-10T00:02:26;95732.53;;;17.64;71.07
56668;BME280;42542;48.360;10.958;2023-06-10T00:05:29;95731.69;;;17.64;71.17
56668;BME280;42542;48.360;10.958;2023-06-10T00:08:31;95730.88;;;17.56;71.36
56668;BME280;42542;48.360;10.958;2023-06-10T00:11:34;95732.34;;;17.52;71.29
56668;BME280;42542;48.360;10.958;2023-06-10T00:14:39;95731.75;;;17.50;71.75
56668;BME280;42542;48.360;10.958;2023-06-10T00:17:42;95738.41;;;17.48;71.76
56668;BME280;42542;48.360;10.958;2023-06-10T00:20:44;95728.00;;;17.45;72.49
56668;BME280;42542;48.360;10.958;2023-06-10T00:23:46;95731.56;;;17.39;72.55
56668;BME280;42542;48.360;10.958;2023-06-10T00:26:48;95726.00;;;17.34;72.75
56668;BME280;42542;48.360;10.958;2023-06-10T00:29:50;95739.34;;;17.29;73.14
56668;BME280;42542;48.360;10.958;2023-06-10T00:32:51;95737.47;;;17.23;73.46
56668;BME280;42542;48.360;10.958;2023-06-10T00:35:53;95739.16;;;17.17;73.46
56668;BME280;42542;48.360;10.958;2023-06-10T00:38:57;95734.41;;;17.12;73.96
56668;BME280;42542;48.360;10.958;2023-06-10T00:41:58;95730.91;;;17.05;74.57
56668;BME280;42542;48.360;10.958;2023-06-10T00:45:01;95735.06;;;17.01;74.47
56668;BME280;42542;48.360;10.958;2023-06-10T00:48:03;95741.13;;;16.97;74.93
56668;BME280;42542;48.360;10.958;2023-06-10T00:51:06;95738.25;;;16.92;74.97
56668;BME280;42542;48.360;10.958;2023-06-10T00:54:10;95734.50;;;16.86;74.62
56668;BME280;42542;48.360;10.958;2023-06-10T00:57:15;95729.53;;;16.83;74.97
56668;BME280;42542;48.360;10.958;2023-06-10T01:00:17;95729.13;;;16.79;75.04
56668;BME280;42542;48.360;10.958;2023-06-10T01:03:19;95732.47;;;16.75;75.64
56668;BME280;42542;48.360;10.958;2023-06-10T01:09:41;95729.78;;;16.68;76.10
56668;BME280;42542;48.360;10.958;2023-06-10T01:13:01;95720.22;;;16.59;76.59
56668;BME280;42542;48.360;10.958;2023-06-10T01:16:05;95739.09;;;16.59;76.86
56668;BME280;42542;48.360;10.958;2023-06-10T01:19:07;95734.56;;;16.53;77.25
56668;BME280;42542;48.360;10.958;2023-06-10T01:22:09;95737.91;;;16.49;77.52
56668;BME280;42542;48.360;10.958;2023-06-10T01:25:12;95732.28;;;16.44;77.70
56668;BME280;42542;48.360;10.958;2023-06-10T01:31:36;95733.97;;;16.38;78.34
56668;BME280;42542;48.360;10.958;2023-06-10T01:34:42;95734.59;;;16.33;78.18
56668;BME280;42542;48.360;10.958;2023-06-10T01:37:46;95739.56;;;16.30;78.22
56668;BME280;42542;48.360;10.958;2023-06-10T01:40:49;95739.38;;;16.25;78.34
56668;BME280;42542;48.360;10.958;2023-06-10T01:43:55;95743.53;;;16.21;78.41
56668;BME280;42542;48.360;10.958;2023-06-10T01:46:57;95737.72;;;16.17;78.56
56668;BME280;42542;48.360;10.958;2023-06-10T01:49:59;95740.59;;;16.16;78.74
56668;BME280;42542;48.360;10.958;2023-06-10T01:53:03;95744.56;;;16.13;78.89
56668;BME280;42542;48.360;10.958;2023-06-10T01:56:05;95750.56;;;16.09;79.26
56668;BME280;42542;48.360;10.958;2023-06-10T01:59:07;95744.34;;;16.08;79.50
56668;BME280;42542;48.360;10.958;2023-06-10T02:02:10;95750.16;;;16.05;79.74
56668;BME280;42542;48.360;10.958;2023-06-10T02:05:12;95753.06;;;16.04;79.60
56668;BME280;42542;48.360;10.958;2023-06-10T02:08:16;95750.78;;;16.00;80.20
56668;BME280;42542;48.360;10.958;2023-06-10T02:11:19;95750.38;;;15.97;80.52
56668;BME280;42542;48.360;10.958;2023-06-10T02:14:21;95749.34;;;15.91;80.73
56668;BME280;42542;48.360;10.958;2023-06-10T02:17:23;95763.22;;;15.88;80.68
56668;BME280;42542;48.360;10.958;2023-06-10T02:20:25;95754.91;;;15.83;81.16
56668;BME280;42542;48.360;10.958;2023-06-10T02:23:27;95752.22;;;15.77;81.55
56668;BME280;42542;48.360;10.958;2023-06-10T02:26:29;95758.63;;;15.76;81.81
56668;BME280;42542;48.360;10.958;2023-06-10T02:29:34;95759.22;;;15.71;82.07
56668;BME280;42542;48.360;10.958;2023-06-10T02:32:37;95753.25;;;15.69;82.69
56668;BME280;42542;48.360;10.958;2023-06-10T02:35:40;95759.03;;;15.66;83.02
56668;BME280;42542;48.360;10.958;2023-06-10T02:38:42;95756.75;;;15.63;83.06
56668;BME280;42542;48.360;10.958;2023-06-10T02:41:45;95753.81;;;15.58;83.35
56668;BME280;42542;48.360;10.958;2023-06-10T02:44:47;95759.63;;;15.55;83.32
56668;BME280;42542;48.360;10.958;2023-06-10T02:47:57;95756.47;;;15.51;83.73
56668;BME280;42542;48.360;10.958;2023-06-10T02:50:59;95766.00;;;15.47;84.06
56668;BME280;42542;48.360;10.958;2023-06-10T02:54:08;95765.56;;;15.44;84.36
56668;BME280;42542;48.360;10.958;2023-06-10T02:57:10;95762.25;;;15.42;84.78
56668;BME280;42542;48.360;10.958;2023-06-10T03:00:12;95763.50;;;15.39;84.47
56668;BME280;42542;48.360;10.958;2023-06-10T03:03:18;95769.06;;;15.38;84.79
56668;BME280;42542;48.360;10.958;2023-06-10T03:06:33;95768.44;;;15.36;85.03
56668;BME280;42542;48.360;10.958;2023-06-10T03:09:49;95760.34;;;15.29;85.20
56668;BME280;42542;48.360;10.958;2023-06-10T03:12:51;95780.44;;;15.27;85.28
56668;BME280;42542;48.360;10.958;2023-06-10T03:15:54;95776.09;;;15.26;85.41
56668;BME280;42542;48.360;10.958;2023-06-10T03:19:00;95783.53;;;15.23;85.43
56668;BME280;42542;48.360;10.958;2023-06-10T03:22:13;95782.88;;;15.21;85.38
56668;BME280;42542;48.360;10.958;2023-06-10T03:25:44;95790.13;;;15.21;85.31
56668;BME280;42542;48.360;10.958;2023-06-10T03:28:50;95787.66;;;15.19;86.38
56668;BME280;42542;48.360;10.958;2023-06-10T03:31:55;95786.19;;;15.17;85.79
56668;BME280;42542;48.360;10.958;2023-06-10T03:34:59;95789.50;;;15.12;86.33
56668;BME280;42542;48.360;10.958;2023-06-10T03:38:03;95795.09;;;15.11;86.09
56668;BME280;42542;48.360;10.958;2023-06-10T03:41:06;95794.63;;;15.07;86.52
56668;BME280;42542;48.360;10.958;2023-06-10T03:44:08;95803.97;;;15.05;86.82
56668;BME280;42542;48.360;10.958;2023-06-10T03:47:11;95806.22;;;15.01;86.84
56668;BME280;42542;48.360;10.958;2023-06-10T03:50:14;95808.47;;;14.98;87.16
56668;BME280;42542;48.360;10.958;2023-06-10T03:53:19;95808.88;;;14.95;87.43
56668;BME280;42542;48.360;10.958;2023-06-10T03:56:21;95809.88;;;14.94;87.53
56668;BME280;42542;48.360;10.958;2023-06-10T03:59:24;95814.84;;;14.90;87.61
56668;BME280;42542;48.360;10.958;2023-06-10T04:02:28;95814.44;;;14.93;87.73
56668;BME280;42542;48.360;10.958;2023-06-10T04:05:31;95805.53;;;14.93;88.46
56668;BME280;42542;48.360;10.958;2023-06-10T04:08:33;95814.44;;;14.93;88.41
56668;BME280;42542;48.360;10.958;2023-06-10T04:11:35;95810.91;;;14.93;88.55
56668;BME280;42542;48.360;10.958;2023-06-10T04:14:38;95812.59;;;14.94;88.70
56668;BME280;42542;48.360;10.958;2023-06-10T04:17:43;95812.38;;;14.95;89.14
56668;BME280;42542;48.360;10.958;2023-06-10T04:20:46;95816.75;;;14.96;88.75
56668;BME280;42542;48.360;10.958;2023-06-10T04:23:48;95810.72;;;14.94;88.82
56668;BME280;42542;48.360;10.958;2023-06-10T04:26:51;95822.34;;;15.01;88.97
56668;BME280;42542;48.360;10.958;2023-06-10T04:29:54;95819.28;;;15.04;88.91
56668;BME280;42542;48.360;10.958;2023-06-10T04:32:57;95821.56;;;15.07;88.54
56668;BME280;42542;48.360;10.958;2023-06-10T04:36:00;95821.38;;;15.09;87.93
56668;BME280;42542;48.360;10.958;2023-06-10T04:39:04;95822.63;;;15.13;87.72
56668;BME280;42542;48.360;10.958;2023-06-10T04:42:09;95824.91;;;15.16;87.86
56668;BME280;42542;48.360;10.958;2023-06-10T04:45:12;95826.78;;;15.15;88.00
56668;BME280;42542;48.360;10.958;2023-06-10T04:48:15;95822.25;;;15.22;88.27
56668;BME280;42542;48.360;10.958;2023-06-10T04:51:17;95814.81;;;15.24;88.16
56668;BME280;42542;48.360;10.958;2023-06-10T04:54:19;95827.28;;;15.32;87.92
56668;BME280;42542;48.360;10.958;2023-06-10T04:57:21;95818.16;;;15.33;88.44
56668;BME280;42542;48.360;10.958;2023-06-10T05:00:23;95834.78;;;15.43;88.29
56668;BME280;42542;48.360;10.958;2023-06-10T05:03:26;95827.97;;;15.47;88.47
56668;BME280;42542;48.360;10.958;2023-06-10T05:06:28;95836.09;;;15.54;88.14
56668;BME280;42542;48.360;10.958;2023-06-10T05:09:30;95832.41;;;15.61;88.33
56668;BME280;42542;48.360;10.958;2023-06-10T05:12:32;95844.03;;;15.69;88.15
56668;BME280;42542;48.360;10.958;2023-06-10T05:15:33;95840.31;;;15.76;88.50
56668;BME280;42542;48.360;10.958;2023-06-10T05:18:35;95840.13;;;15.84;88.26
56668;BME280;42542;48.360;10.958;2023-06-10T05:21:38;95834.53;;;15.92;88.06
56668;BME280;42542;48.360;10.958;2023-06-10T05:24:40;95830.41;;;16.03;88.04
56668;BME280;42542;48.360;10.958;2023-06-10T05:27:44;95838.72;;;16.15;87.84
56668;BME280;42542;48.360;10.958;2023-06-10T05:30:45;95844.34;;;16.26;87.23
56668;BME280;42542;48.360;10.958;2023-06-10T05:33:47;95840.38;;;16.35;86.85
56668;BME280;42542;48.360;10.958;2023-06-10T05:36:49;95852.66;;;16.45;86.66
56668;BME280;42542;48.360;10.958;2023-06-10T05:39:51;95841.66;;;16.53;86.06
56668;BME280;42542;48.360;10.958;2023-06-10T05:42:57;95847.50;;;16.63;86.20
56668;BME280;42542;48.360;10.958;2023-06-10T05:45:59;95849.56;;;16.67;85.29
56668;BME280;42542;48.360;10.958;2023-06-10T05:49:02;95840.03;;;16.78;85.52
56668;BME280;42542;48.360;10.958;2023-06-10T05:52:04;95835.44;;;16.85;85.79
56668;BME280;42542;48.360;10.958;2023-06-10T05:55:07;95849.13;;;16.97;85.39
56668;BME280;42542;48.360;10.958;2023-06-10T05:58:10;95844.13;;;17.07;85.13
56668;BME280;42542;48.360;10.958;2023-06-10T06:01:14;95836.00;;;17.13;85.16
56668;BME280;42542;48.360;10.958;2023-06-10T06:04:18;95835.78;;;17.22;84.51
56668;BME280;42542;48.360;10.958;2023-06-10T06:07:23;95847.16;;;17.30;84.64
56668;BME280;42542;48.360;10.958;2023-06-10T06:10:29;95842.56;;;17.37;84.23
56668;BME280;42542;48.360;10.958;2023-06-10T06:13:31;95844.19;;;17.45;84.13
56668;BME280;42542;48.360;10.958;2023-06-10T06:16:33;95842.09;;;17.53;83.75
56668;BME280;42542;48.360;10.958;2023-06-10T06:19:35;95835.44;;;17.56;83.58
56668;BME280;42542;48.360;10.958;2023-06-10T06:22:37;95845.81;;;17.66;83.64
56668;BME280;42542;48.360;10.958;2023-06-10T06:25:40;95841.19;;;17.73;83.56
56668;BME280;42542;48.360;10.958;2023-06-10T06:28:42;95846.97;;;17.83;83.49
56668;BME280;42542;48.360;10.958;2023-06-10T06:31:44;95840.50;;;17.90;83.29
56668;BME280;42542;48.360;10.958;2023-06-10T06:34:45;95841.28;;;17.98;83.05
56668;BME280;42542;48.360;10.958;2023-06-10T06:37:47;95843.94;;;18.04;82.80
56668;BME280;42542;48.360;10.958;2023-06-10T06:40:54;95840.38;;;18.10;82.53
56668;BME280;42542;48.360;10.958;2023-06-10T06:43:56;95849.06;;;18.19;82.32
56668;BME280;42542;48.360;10.958;2023-06-10T06:46:59;95848.59;;;18.28;82.30
56668;BME280;42542;48.360;10.958;2023-06-10T06:50:01;95846.25;;;18.32;81.34
56668;BME280;42542;48.360;10.958;2023-06-10T06:53:05;95850.56;;;18.40;81.23
56668;BME280;42542;48.360;10.958;2023-06-10T06:56:06;95852.84;;;18.43;81.07
56668;BME280;42542;48.360;10.958;2023-06-10T06:59:09;95859.25;;;18.48;80.66
56668;BME280;42542;48.360;10.958;2023-06-10T07:02:11;95858.38;;;18.54;80.70
56668;BME280;42542;48.360;10.958;2023-06-10T07:05:15;95864.16;;;18.64;80.37
56668;BME280;42542;48.360;10.958;2023-06-10T07:08:16;95871.19;;;18.72;80.16
56668;BME280;42542;48.360;10.958;2023-06-10T07:11:19;95873.00;;;18.78;79.54
56668;BME280;42542;48.360;10.958;2023-06-10T07:14:21;95870.25;;;18.85;79.16
56668;BME280;42542;48.360;10.958;2023-06-10T07:17:24;95872.88;;;18.91;79.28
56668;BME280;42542;48.360;10.958;2023-06-10T07:20:25;95869.69;;;19.01;78.20
56668;BME280;42542;48.360;10.958;2023-06-10T07:23:28;95862.75;;;19.05;78.20
56668;BME280;42542;48.360;10.958;2023-06-10T07:26:31;95861.44;;;19.14;78.38
56668;BME280;42542;48.360;10.958;2023-06-10T07:29:33;95866.56;;;19.22;78.45
56668;BME280;42542;48.360;10.958;2023-06-10T07:32:37;95865.19;;;19.31;77.76
56668;BME280;42542;48.360;10.958;2023-06-10T07:35:39;95864.91;;;19.39;77.75
56668;BME280;42542;48.360;10.958;2023-06-10T07:38:41;95865.91;;;19.45;76.85
56668;BME280;42542;48.360;10.958;2023-06-10T07:41:43;95859.97;;;19.55;76.40
56668;BME280;42542;48.360;10.958;2023-06-10T07:44:45;95861.53;;;19.62;75.98
56668;BME280;42542;48.360;10.958;2023-06-10T07:47:47;95856.44;;;19.72;75.50
56668;BME280;42542;48.360;10.958;2023-06-10T07:50:48;95853.03;;;19.77;75.12
56668;BME280;42542;48.360;10.958;2023-06-10T07:53:51;95845.72;;;19.77;74.68
56668;BME280;42542;48.360;10.958;2023-06-10T07:56:52;95855.56;;;19.90;74.48
56668;BME280;42542;48.360;10.958;2023-06-10T07:59:55;95854.41;;;19.98;73.87
56668;BME280;42542;48.360;10.958;2023-06-10T08:02:59;95859.16;;;20.02;74.44
56668;BME280;42542;48.360;10.958;2023-06-10T08:06:02;95861.19;;;20.07;73.37
56668;BME280;42542;48.360;10.958;2023-06-10T08:09:04;95851.06;;;20.14;72.80
56668;BME280;42542;48.360;10.958;2023-06-10T08:12:07;95849.78;;;20.16;72.00
56668;BME280;42542;48.360;10.958;2023-06-10T08:15:12;95858.41;;;20.25;71.74
56668;BME280;42542;48.360;10.958;2023-06-10T08:18:14;95854.41;;;20.27;70.89
56668;BME280;42542;48.360;10.958;2023-06-10T08:21:16;95844.75;;;20.32;71.00
56668;BME280;42542;48.360;10.958;2023-06-10T08:24:19;95850.34;;;20.37;70.92
56668;BME280;42542;48.360;10.958;2023-06-10T08:27:21;95849.28;;;20.38;70.13
56668;BME280;42542;48.360;10.958;2023-06-10T08:30:23;95849.41;;;20.43;69.81
56668;BME280;42542;48.360;10.958;2023-06-10T08:33:26;95847.22;;;20.51;69.67
56668;BME280;42542;48.360;10.958;2023-06-10T08:36:28;95846.25;;;20.57;68.91
56668;BME280;42542;48.360;10.958;2023-06-10T08:39:30;95848.03;;;20.63;68.92
56668;BME280;42542;48.360;10.958;2023-06-10T08:42:48;95848.75;;;20.71;68.68
56668;BME280;42542;48.360;10.958;2023-06-10T08:45:55;95850.31;;;20.78;68.49
56668;BME280;42542;48.360;10.958;2023-06-10T08:49:04;95842.75;;;20.80;67.80
56668;BME280;42542;48.360;10.958;2023-06-10T08:52:13;95842.53;;;20.93;67.83
56668;BME280;42542;48.360;10.958;2023-06-10T08:55:24;95838.97;;;21.04;65.65
56668;BME280;42542;48.360;10.958;2023-06-10T08:58:33;95842.06;;;21.08;65.51
56668;BME280;42542;48.360;10.958;2023-06-10T09:01:36;95843.72;;;21.09;64.47
56668;BME280;42542;48.360;10.958;2023-06-10T09:04:42;95835.91;;;21.13;64.71
56668;BME280;42542;48.360;10.958;2023-06-10T09:07:46;95834.28;;;21.23;64.91
56668;BME280;42542;48.360;10.958;2023-06-10T09:10:49;95842.91;;;21.32;64.52
56668;BME280;42542;48.360;10.958;2023-06-10T09:13:51;95844.91;;;21.36;64.04
56668;BME280;42542;48.360;10.958;2023-06-10T09:16:53;95839.44;;;21.48;63.10
56668;BME280;42542;48.360;10.958;2023-06-10T09:19:59;95834.97;;;21.54;63.97
56668;BME280;42542;48.360;10.958;2023-06-10T09:23:01;95840.38;;;21.65;64.49
56668;BME280;42542;48.360;10.958;2023-06-10T09:26:08;95839.41;;;21.71;64.17
56668;BME280;42542;48.360;10.958;2023-06-10T09:29:11;95838.66;;;21.76;65.03
56668;BME280;42542;48.360;10.958;2023-06-10T09:32:13;95841.16;;;21.77;63.42
56668;BME280;42542;48.360;10.958;2023-06-10T09:35:16;95841.28;;;21.83;64.07
56668;BME280;42542;48.360;10.958;2023-06-10T09:38:21;95837.22;;;21.85;63.04
56668;BME280;42542;48.360;10.958;2023-06-10T09:41:35;95844.09;;;21.88;62.20
56668;BME280;42542;48.360;10.958;2023-06-10T09:44:38;95838.66;;;21.88;62.10
56668;BME280;42542;48.360;10.958;2023-06-10T09:47:40;95846.81;;;21.88;61.49
56668;BME280;42542;48.360;10.958;2023-06-10T09:50:44;95849.88;;;21.91;61.79
56668;BME280;42542;48.360;10.958;2023-06-10T09:53:53;95842.19;;;22.00;61.90
56668;BME280;42542;48.360;10.958;2023-06-10T09:56:56;95848.75;;;22.15;61.74
56668;BME280;42542;48.360;10.958;2023-06-10T10:00:10;95837.81;;;22.27;61.42
56668;BME280;42542;48.360;10.958;2023-06-10T10:03:22;95849.28;;;22.29;59.55
56668;BME280;42542;48.360;10.958;2023-06-10T10:06:26;95843.25;;;22.27;59.59
56668;BME280;42542;48.360;10.958;2023-06-10T10:09:27;95851.84;;;22.36;60.19
56668;BME280;42542;48.360;10.958;2023-06-10T10:12:30;95839.16;;;22.41;59.58
56668;BME280;42542;48.360;10.958;2023-06-10T10:15:33;95835.78;;;22.51;59.31
56668;BME280;42542;48.360;10.958;2023-06-10T10:18:40;95832.75;;;22.64;58.69
56668;BME280;42542;48.360;10.958;2023-06-10T10:21:54;95834.63;;;22.75;58.17
56668;BME280;42542;48.360;10.958;2023-06-10T10:25:02;95833.44;;;22.88;57.90
56668;BME280;42542;48.360;10.958;2023-06-10T10:28:10;95838.72;;;22.94;58.02
56668;BME280;42542;48.360;10.958;2023-06-10T10:31:15;95836.66;;;23.02;57.50
56668;BME280;42542;48.360;10.958;2023-06-10T10:37:54;95840.28;;;23.07;56.69
56668;BME280;42542;48.360;10.958;2023-06-10T10:40:56;95847.81;;;23.17;56.34
56668;BME280;42542;48.360;10.958;2023-06-10T10:44:01;95847.56;;;23.18;55.79
56668;BME280;42542;48.360;10.958;2023-06-10T10:47:08;95848.47;;;23.24;55.75
56668;BME280;42542;48.360;10.958;2023-06-10T10:50:16;95849.03;;;23.26;55.94
56668;BME280;42542;48.360;10.958;2023-06-10T10:53:19;95846.88;;;23.28;56.45
56668;BME280;42542;48.360;10.958;2023-06-10T10:56:27;95840.94;;;23.31;56.66
56668;BME280;42542;48.360;10.958;2023-06-10T10:59:52;95840.50;;;23.39;55.72
56668;BME280;42542;48.360;10.958;2023-06-10T11:06:13;95836.19;;;23.43;54.97
56668;BME280;42542;48.360;10.958;2023-06-10T11:09:26;95830.56;;;23.50;54.47
56668;BME280;42542;48.360;10.958;2023-06-10T11:12:51;95837.44;;;23.52;53.59
56668;BME280;42542;48.360;10.958;2023-06-10T11:15:58;95828.75;;;23.55;54.02
56668;BME280;42542;48.360;10.958;2023-06-10T11:18:59;95839.22;;;23.63;53.96
56668;BME280;42542;48.360;10.958;2023-06-10T11:22:04;95832.75;;;23.69;53.99
56668;BME280;42542;48.360;10.958;2023-06-10T11:25:13;95835.94;;;23.83;54.26
56668;BME280;42542;48.360;10.958;2023-06-10T11:28:18;95839.03;;;23.92;54.12
56668;BME280;42542;48.360;10.958;2023-06-10T11:34:24;95828.22;;;24.02;52.64
56668;BME280;42542;48.360;10.958;2023-06-10T11:37:29;95828.34;;;24.12;52.39
56668;BME280;42542;48.360;10.958;2023-06-10T11:40:31;95826.00;;;24.21;52.54
56668;BME280;42542;48.360;10.958;2023-06-10T11:43:33;95831.28;;;24.27;52.97
56668;BME280;42542;48.360;10.958;2023-06-10T11:46:36;95829.34;;;24.28;52.81
56668;BME280;42542;48.360;10.958;2023-06-10T11:49:38;95820.91;;;24.29;53.21
56668;BME280;42542;48.360;10.958;2023-06-10T11:52:44;95829.09;;;24.29;52.63
56668;BME280;42542;48.360;10.958;2023-06-10T11:55:48;95824.94;;;24.22;52.09
56668;BME280;42542;48.360;10.958;2023-06-10T11:59:08;95831.63;;;24.14;51.01
56668;BME280;42542;48.360;10.958;2023-06-10T12:02:17;95832.38;;;24.04;51.33
56668;BME280;42542;48.360;10.958;2023-06-10T12:05:19;95839.94;;;23.97;52.29
56668;BME280;42542;48.360;10.958;2023-06-10T12:08:21;95841.59;;;23.98;52.81
56668;BME280;42542;48.360;10.958;2023-06-10T12:11:23;95845.13;;;23.99;52.99
56668;BME280;42542;48.360;10.958;2023-06-10T12:17:54;95836.94;;;23.99;52.85
56668;BME280;42542;48.360;10.958;2023-06-10T12:20:56;95833.13;;;24.00;52.98
56668;BME280;42542;48.360;10.958;2023-06-10T12:24:07;95822.28;;;24.05;53.33
56668;BME280;42542;48.360;10.958;2023-06-10T12:27:12;95824.81;;;24.11;53.00
56668;BME280;42542;48.360;10.958;2023-06-10T12:30:22;95820.72;;;24.14;52.74
56668;BME280;42542;48.360;10.958;2023-06-10T12:33:24;95824.69;;;24.23;52.93
56668;BME280;42542;48.360;10.958;2023-06-10T12:36:27;95821.53;;;24.36;52.32
56668;BME280;42542;48.360;10.958;2023-06-10T12:39:33;95818.59;;;24.43;51.02
56668;BME280;42542;48.360;10.958;2023-06-10T12:42:36;95802.16;;;24.38;50.61
56668;BME280;42542;48.360;10.958;2023-06-10T12:45:41;95815.34;;;24.46;50.98
56668;BME280;42542;48.360;10.958;2023-06-10T12:48:50;95812.91;;;24.49;50.67
56668;BME280;42542;48.360;10.958;2023-06-10T12:51:56;95809.63;;;24.47;50.82
56668;BME280;42542;48.360;10.958;2023-06-10T12:54:59;95804.53;;;24.56;51.20
56668;BME280;42542;48.360;10.958;2023-06-10T12:58:02;95800.44;;;24.59;50.63
56668;BME280;42542;48.360;10.958;2023-06-10T13:01:05;95804.31;;;24.63;49.98
56668;BME280;42542;48.360;10.958;2023-06-10T13:04:07;95802.72;;;24.72;50.90
56668;BME280;42542;48.360;10.958;2023-06-10T13:07:09;95793.50;;;24.78;50.21
56668;BME280;42542;48.360;10.958;2023-06-10T13:10:15;95795.81;;;24.91;49.12
56668;BME280;42542;48.360;10.958;2023-06-10T13:13:18;95789.09;;;25.09;48.04
56668;BME280;42542;48.360;10.958;2023-06-10T13:16:19;95791.19;;;25.39;48.03
56668;BME280;42542;48.360;10.958;2023-06-10T13:19:22;95797.13;;;25.62;46.52
56668;BME280;42542;48.360;10.958;2023-06-10T13:22:24;95789.56;;;25.90;45.67
56668;BME280;42542;48.360;10.958;2023-06-10T13:25:27;95792.88;;;26.02;45.14
56668;BME280;42542;48.360;10.958;2023-06-10T13:28:29;95792.34;;;26.15;46.01
56668;BME280;42542;48.360;10.958;2023-06-10T13:31:36;95793.28;;;26.46;44.46
56668;BME280;42542;48.360;10.958;2023-06-10T13:34:38;95793.28;;;26.61;43.23
56668;BME280;42542;48.360;10.958;2023-06-10T13:37:41;95790.56;;;26.81;43.49
56668;BME280;42542;48.360;10.958;2023-06-10T13:40:42;95794.16;;;26.97;43.68
56668;BME280;42542;48.360;10.958;2023-06-10T13:43:45;95786.75;;;27.08;43.99
56668;BME280;42542;48.360;10.958;2023-06-10T13:46:46;95791.09;;;27.29;42.73
56668;BME280;42542;48.360;10.958;2023-06-10T13:49:50;95787.47;;;27.49;42.79
56668;BME280;42542;48.360;10.958;2023-06-10T13:52:53;95784.72;;;27.64;41.57
56668;BME280;42542;48.360;10.958;2023-06-10T13:55:54;95782.16;;;27.83;40.63
56668;BME280;42542;48.360;10.958;2023-06-10T13:58:56;95777.13;;;28.05;40.91
56668;BME280;42542;48.360;10.958;2023-06-10T14:01:58;95776.53;;;28.13;40.43
56668;BME280;42542;48.360;10.958;2023-06-10T14:05:02;95771.84;;;28.19;40.84
56668;BME280;42542;48.360;10.958;2023-06-10T14:08:04;95764.44;;;28.19;40.01
56668;BME280;42542;48.360;10.958;2023-06-10T14:11:07;95767.97;;;28.30;39.81
56668;BME280;42542;48.360;10.958;2023-06-10T14:14:09;95764.91;;;28.31;39.58
56668;BME280;42542;48.360;10.958;2023-06-10T14:17:12;95764.81;;;28.47;39.40
56668;BME280;42542;48.360;10.958;2023-06-10T14:20:14;95765.50;;;28.62;38.91
56668;BME280;42542;48.360;10.958;2023-06-10T14:23:16;95770.31;;;28.86;39.05
56668;BME280;42542;48.360;10.958;2023-06-10T14:26:19;95761.78;;;29.16;38.26
56668;BME280;42542;48.360;10.958;2023-06-10T14:29:23;95758.56;;;29.38;37.38
56668;BME280;42542;48.360;10.958;2023-06-10T14:32:25;95759.72;;;29.56;36.44
56668;BME280;42542;48.360;10.958;2023-06-10T14:35:28;95759.09;;;29.64;35.70
56668;BME280;42542;48.360;10.958;2023-06-10T14:38:30;95759.81;;;29.74;36.26
56668;BME280;42542;48.360;10.958;2023-06-10T14:41:32;95759.28;;;29.96;36.50
56668;BME280;42542;48.360;10.958;2023-06-10T14:44:33;95755.44;;;30.16;35.94
56668;BME280;42542;48.360;10.958;2023-06-10T14:47:36;95759.09;;;30.30;35.80
56668;BME280;42542;48.360;10.958;2023-06-10T14:50:38;95765.72;;;30.48;35.60
56668;BME280;42542;48.360;10.958;2023-06-10T14:53:42;95749.78;;;30.63;35.58
56668;BME280;42542;48.360;10.958;2023-06-10T14:56:44;95746.44;;;30.67;35.16
56668;BME280;42542;48.360;10.958;2023-06-10T14:59:47;95752.97;;;30.89;35.69
56668;BME280;42542;48.360;10.958;2023-06-10T15:02:50;95760.97;;;31.04;34.68
56668;BME280;42542;48.360;10.958;2023-06-10T15:05:52;95758.59;;;31.17;33.51
56668;BME280;42542;48.360;10.958;2023-06-10T15:08:53;95751.97;;;31.31;33.77
56668;BME280;42542;48.360;10.958;2023-06-10T15:11:56;95756.38;;;31.46;33.70
56668;BME280;42542;48.360;10.958;2023-06-10T15:14:58;95754.63;;;31.50;33.00
56668;BME280;42542;48.360;10.958;2023-06-10T15:18:01;95762.50;;;31.43;32.98
56668;BME280;42542;48.360;10.958;2023-06-10T15:21:02;95758.03;;;31.47;33.63
56668;BME280;42542;48.360;10.958;2023-06-10T15:24:05;95751.06;;;31.50;33.09
56668;BME280;42542;48.360;10.958;2023-06-10T15:27:07;95750.63;;;31.29;32.35
56668;BME280;42542;48.360;10.958;2023-06-10T15:30:10;95744.78;;;31.17;32.88
56668;BME280;42542;48.360;10.958;2023-06-10T15:33:11;95753.75;;;31.09;32.14
56668;BME280;42542;48.360;10.958;2023-06-10T15:36:15;95748.81;;;31.06;31.48
56668;BME280;42542;48.360;10.958;2023-06-10T15:39:17;95744.66;;;31.08;32.01
56668;BME280;42542;48.360;10.958;2023-06-10T15:42:20;95736.50;;;31.17;32.05
56668;BME280;42542;48.360;10.958;2023-06-10T15:45:21;95737.72;;;31.24;31.64
56668;BME280;42542;48.360;10.958;2023-06-10T15:48:25;95734.03;;;31.15;31.25
56668;BME280;42542;48.360;10.958;2023-06-10T15:51:26;95731.97;;;31.07;31.17
56668;BME280;42542;48.360;10.958;2023-06-10T15:54:28;95733.75;;;30.98;31.59
56668;BME280;42542;48.360;10.958;2023-06-10T15:57:30;95728.72;;;30.86;31.99
56668;BME280;42542;48.360;10.958;2023-06-10T16:00:32;95733.88;;;30.74;32.58
56668;BME280;42542;48.360;10.958;2023-06-10T16:03:35;95729.81;;;30.53;32.43
56668;BME280;42542;48.360;10.958;2023-06-10T16:06:38;95731.22;;;30.32;32.70
56668;BME280;42542;48.360;10.958;2023-06-10T16:09:39;95729.25;;;30.13;32.25
56668;BME280;42542;48.360;10.958;2023-06-10T16:12:41;95723.91;;;29.79;32.54
56668;BME280;42542;48.360;10.958;2023-06-10T16:15:43;95732.19;;;29.56;33.14
56668;BME280;42542;48.360;10.958;2023-06-10T16:18:45;95730.44;;;29.41;33.96
56668;BME280;42542;48.360;10.958;2023-06-10T16:21:46;95735.56;;;29.24;33.94